Vaaraa aiheuttavia sääilmiöitä ei ole odotettavissa.    Ei varoituksia

Webkamera Lisätietoa Webcam


Yksityisiä sääasemia lähellä:

Sääasema Juupajoki

Sääasema Orivesi

Sääasema Muurame

Sääasema Jyväskylä

Sääasema Vihtavuori


Löydät sääaseman tiedot myös:

Finland Weather Exchange

European Weather Network

Weather Underground

AWEKAS

Windy.com



Säätiedot lähimmiltä METAR asemilta

   
EFHA - Halli (Fin-Afb), Finland
Etäisyys asemalta: Kaakko 25 km
Päivitetty: 23.05.2019 15:50
Pilvistä  
Pilvistä  
   Tuuli: Itäkoillinen 4.1 m/s
Tuuli: Itäkoillinen 4.1 m/s
Lämpötila: 10°C
Tuulen hyytävyys: 8°C
Kastepiste: 5°C
Kosteus: 71%
Ilmanpaine: 1013 hPa
Pilvisyys: Pilvistä
Näkyvyys: Enemmän kuin 10 km
Pilvitiedot: Pilvistä 610 m
EFHA 231250Z 07008KT 9999 OVC020 10/05 Q1013
EFJY - Jyvaskyla (Mil/Civ), Finland
Etäisyys asemalta: Koillinen 75 km
Päivitetty: 23.05.2019 15:50
Heikkoa sadetta, Melkein pilvistä  
Heikkoa sadetta, Melkein pilvistä  
   Tuuli: Itä 3.6 m/s
Tuuli: Itä 3.6 m/s
Lämpötila: 9°C
Tuulen hyytävyys: 7°C
Kastepiste: 2°C
Kosteus: 62%
Ilmanpaine: 1014 hPa
Pilvisyys: Melkein pilvistä
Näkyvyys: Enemmän kuin 10 km
Pilvitiedot: Vähäistä pilvisyyttä 853 m,
Melkein pilvistä 1128 m
EFJY 231250Z 09007KT 9999 -RA FEW028 BKN037 09/02 Q1014
EFTP - Tampere/Pirkkala, Finland
Etäisyys asemalta: Lounas 81 km
Päivitetty: 23.05.2019 15:50
Pilvistä  
Pilvistä  
   Tuuli: Itä 4.6 m/s
Tuuli: Itä 4.6 m/s
Lämpötila: 13°C
Kastepiste: 8°C
Kosteus: 72%
Ilmanpaine: 1013 hPa
Pilvisyys: Pilvistä
Näkyvyys: Enemmän kuin 10 km
Pilvitiedot: Puolipilvistä 579 m,
Pilvistä 884 m
EFTP 231250Z AUTO 08009KT 050V120 9999 SCT019 OVC029 13/08 Q1013
EFSI - Seinajoki-Ilmajoki, Finland
Etäisyys asemalta: Luode 114 km
Päivitetty: 23.05.2019 15:50
Heikkoa sadetta, Pilvistä  
Heikkoa sadetta, Pilvistä  
   Tuuli: Itä 3.6 m/s
Tuuli: Itä 3.6 m/s
Lämpötila: 8°C
Tuulen hyytävyys: 6°C
Kastepiste: 8°C
Kosteus: 100%
Ilmanpaine: 1013 hPa
Pilvisyys: Pilvistä
Näkyvyys: Enemmän kuin 10 km
Pilvitiedot: Vähäistä pilvisyyttä 183 m,
Melkein pilvistä 335 m,
Pilvistä 427 m
EFSI 231250Z AUTO 08007KT 9999 -RA FEW006 BKN011 OVC014 08/08 Q1013
EFMI - Mikkeli, Finland
Etäisyys asemalta: Itäkaakko 147 km
Päivitetty: 23.05.2019 15:50
Melkein pilvistä  
Melkein pilvistä  
   Tuuli: Itä 2.6 m/s
Tuuli: Itä 2.6 m/s
Lämpötila: 11°C
Kastepiste: 3°C
Kosteus: 58%
Ilmanpaine: 1014 hPa
Pilvisyys: Melkein pilvistä
Näkyvyys: Enemmän kuin 10 km
Pilvitiedot: Vähäistä pilvisyyttä 1158 m,
Melkein pilvistä 4115 m
EFMI 231250Z AUTO 09005KT 040V140 9999 FEW038 BKN135 11/03 Q1014
EFPO - Pori (Mil/Civ), Finland
Etäisyys asemalta: Länsilounas 154 km
Päivitetty: 23.05.2019 15:50
Pilvistä  
Pilvistä  
   Tuuli: Eteläkaakko 4.1 m/s
Tuuli: Eteläkaakko 4.1 m/s
Lämpötila: 17°C
Kastepiste: 9°C
Kosteus: 59%
Ilmanpaine: 1011 hPa
Pilvisyys: Pilvistä
Näkyvyys: Enemmän kuin 10 km
Pilvitiedot: Pilvistä 1158 m
EFPO 231250Z AUTO 15008KT 9999 OVC038/// 17/09 Q1011
EFUT - Utti (Fin-Afb), Finland
Etäisyys asemalta: Kaakko 180 km
Päivitetty: 23.05.2019 15:50
Melkein pilvistä  
Melkein pilvistä  
   Tuuli: Koillinen 4.1 m/s
Tuuli: Koillinen 4.1 m/s
Lämpötila: 12°C
Kastepiste: 4°C
Kosteus: 58%
Ilmanpaine: 1013 hPa
Pilvisyys: Melkein pilvistä
Näkyvyys: Enemmän kuin 10 km
Pilvitiedot: Puolipilvistä 884 m,
Melkein pilvistä 4267 m
EFUT 231250Z 05008KT 010V140 9999 SCT029 BKN140 12/04 Q1013
EFVA - Vaasa, Finland
Etäisyys asemalta: Luode 180 km
Päivitetty: 23.05.2019 15:50
Heikkoa sadetta, Pilvistä  
Heikkoa sadetta, Pilvistä  
   Tuuli: Itä 4.1 m/s
Tuuli: Itä 4.1 m/s
Lämpötila: 9°C
Tuulen hyytävyys: 7°C
Kastepiste: 7°C
Kosteus: 87%
Ilmanpaine: 1013 hPa
Pilvisyys: Pilvistä
Näkyvyys: Enemmän kuin 10 km
Pilvitiedot: Puolipilvistä 305 m,
Pilvistä 366 m
EFVA 231250Z AUTO 09008KT 050V130 9999 -RA SCT010/// OVC012/// 09/07 Q1013
EFHK - Helsinki/Vantaa, Finland
Etäisyys asemalta: Etelä 191 km
Päivitetty: 23.05.2019 15:50
Melkein pilvistä  
Melkein pilvistä  
   Tuuli: Kaakko 6.2 m/s
Tuuli: Kaakko 6.2 m/s
Lämpötila: 15°C
Kastepiste: 9°C
Kosteus: 68%
Ilmanpaine: 1012 hPa
Pilvisyys: Melkein pilvistä
Näkyvyys: Enemmän kuin 10 km
Pilvitiedot: Melkein pilvistä 853 m
EFHK 231250Z 13012KT 9999 BKN028 15/09 Q1012 NOSIG

Alkuperäinen skripti  Saratoga-weather.org Sovitettu myös templatelle  Weerstation Leuven

Laitteet joita käytämme:

Sääasema
Davis VP2

Sääasemaohjelma
Cumulus

Sääaseman palvelin
HP ProBook 6460b

Palveluntarjoaja
Radicenter

Davis VP2

Cumulus

HP ProBook 6460b

Radicenter




Flag Counter Cumulus Top Weather Sites